Time;durP1;ratioP1;P1;durP2;ratioP2;P2;SDS_P1;SDS_P2;PMS_P1;PMS_P2;Temp;Humidity;BMP_temperature;BMP_pressure;BME280_temperature;BME280_humidity;BME280_pressure;Samples;Min_cycle;Max_cycle;Signal;HPM_P1;HPM_P2
2022/04/17 00:00:17;;;;;;;;;;;2.70;99.90;;;;;;5054417;28;19912;-81
2022/04/17 00:02:43;;;;;;;;;;;2.60;99.90;;;;;;5054032;28;19916;-81
2022/04/17 00:05:09;;;;;;;;;;;2.60;99.90;;;;;;5054272;28;20346;-81
2022/04/17 00:07:35;;;;;;;;;;;2.60;99.90;;;;;;5054224;28;20254;-81
2022/04/17 00:10:00;;;;;;;;;;;2.50;99.90;;;;;;5054198;28;19909;-81
2022/04/17 00:12:26;;;;;;;;;;;2.40;99.90;;;;;;5054226;28;19905;-81
2022/04/17 00:14:53;;;;;;;;;;;2.40;99.90;;;;;;5054028;28;19909;-81
2022/04/17 00:17:18;;;;;;;;;;;2.30;99.90;;;;;;5052500;28;19904;-81
2022/04/17 00:19:44;;;;;;;;;;;2.20;99.90;;;;;;5054071;28;20268;-81
2022/04/17 00:22:10;;;;;;;6.90;4.60;;;2.10;99.90;;;;;;5052055;28;19912;-81
2022/04/17 00:24:39;;;;;;;9.65;5.10;;;2.00;99.90;;;;;;5053496;28;20017;-81
2022/04/17 00:27:05;;;;;;;9.23;4.80;;;1.80;99.90;;;;;;5052247;28;20021;-81
2022/04/17 00:29:30;;;;;;;10.38;5.60;;;1.70;99.90;;;;;;5053550;28;20539;-81
2022/04/17 00:31:59;;;;;;;8.15;4.88;;;1.60;99.90;;;;;;5052233;28;20067;-81
2022/04/17 00:34:26;;;;;;;7.88;4.97;;;1.50;99.90;;;;;;5053325;28;20029;-81
2022/04/17 00:36:52;;;;;;;8.20;4.90;;;1.50;99.90;;;;;;5053495;28;20491;-81
2022/04/17 00:39:17;;;;;;;8.52;5.25;;;1.40;99.90;;;;;;5053384;28;20251;-81
2022/04/17 00:41:43;;;;;;;8.93;4.95;;;1.30;99.90;;;;;;5053625;28;20489;-81
2022/04/17 00:44:10;;;;;;;8.23;5.05;;;1.30;99.90;;;;;;5053192;28;20031;-81
2022/04/17 00:46:36;;;;;;;9.05;5.18;;;1.30;99.90;;;;;;5051853;28;20032;-81
2022/04/17 00:49:02;;;;;;;8.30;4.35;;;1.20;99.90;;;;;;5053572;28;20021;-81
2022/04/17 00:51:29;;;;;;;9.18;4.75;;;1.20;99.90;;;;;;5053639;28;20025;-81
2022/04/17 00:53:57;;;;;;;6.90;4.47;;;1.10;99.90;;;;;;5053244;28;20035;-81
2022/04/17 00:56:24;;;;;;;7.57;5.07;;;1.00;99.90;;;;;;5053440;28;20417;-80
2022/04/17 00:58:50;;;;;;;9.15;5.20;;;1.00;99.90;;;;;;5053267;28;20018;-80
2022/04/17 01:01:16;;;;;;;8.45;5.03;;;0.90;99.90;;;;;;5052974;28;20028;-81
2022/04/17 01:03:41;;;;;;;8.63;5.18;;;0.80;99.90;;;;;;5055444;28;20028;-80
2022/04/17 01:06:08;;;;;;;8.48;4.97;;;0.90;99.90;;;;;;5057937;28;20104;-80
2022/04/17 01:08:40;;;;;;;8.27;4.90;;;0.90;99.90;;;;;;5056568;28;20497;-80
2022/04/17 01:11:07;;;;;;;8.95;5.30;;;0.90;99.90;;;;;;5055997;28;20091;-80
2022/04/17 01:13:33;;;;;;;10.45;5.75;;;0.90;99.90;;;;;;5055580;28;20032;-80
2022/04/17 01:16:02;;;;;;;8.50;5.20;;;0.90;99.90;;;;;;5055474;28;20452;-80
2022/04/17 01:18:28;;;;;;;9.15;4.93;;;0.90;99.90;;;;;;5055396;28;20113;-80
2022/04/17 01:20:54;;;;;;;8.77;4.53;;;0.90;99.90;;;;;;5056756;28;20017;-80
2022/04/17 01:28:48;;;;;;;8.00;4.88;;;1.20;99.90;;;;;;5056689;28;20090;-80
2022/04/17 01:31:13;;;;;;;6.95;4.47;;;1.20;99.90;;;;;;5055126;28;20021;-80
2022/04/17 01:33:39;;;;;;;10.85;4.40;;;1.30;99.90;;;;;;5055146;28;20021;-80
2022/04/17 01:36:05;;;;;;;7.70;4.78;;;1.30;99.90;;;;;;5055231;28;20021;-80
2022/04/17 01:38:30;;;;;;;7.35;4.82;;;1.40;99.90;;;;;;5055513;28;20029;-80
2022/04/17 01:40:56;;;;;;;7.22;4.70;;;1.40;99.90;;;;;;5056510;28;20079;-80
2022/04/17 01:43:21;;;;;;;7.70;4.47;;;1.30;99.90;;;;;;5056479;28;20017;-80
2022/04/17 01:45:47;;;;;;;10.18;5.55;;;1.20;99.90;;;;;;5056530;28;20413;-80
2022/04/17 01:48:13;;;;;;;8.15;4.90;;;1.10;99.90;;;;;;5056311;28;20040;-80
2022/04/17 01:50:38;;;;;;;12.18;6.55;;;0.90;99.90;;;;;;5056778;28;20063;-79
2022/04/17 01:53:04;;;;;;;13.43;6.43;;;0.80;99.90;;;;;;5056319;28;20021;-79
2022/04/17 01:55:30;;;;;;;11.55;5.82;;;0.70;99.90;;;;;;5056709;28;20392;-79
2022/04/17 01:57:57;;;;;;;12.48;5.97;;;0.60;99.90;;;;;;5056719;28;20033;-79
2022/04/17 02:00:23;;;;;;;7.45;4.80;;;0.60;99.90;;;;;;5055020;28;20029;-79
2022/04/17 02:02:49;;;;;;;8.18;5.07;;;0.60;99.90;;;;;;5055955;28;20055;-79
2022/04/17 02:05:15;;;;;;;8.40;5.07;;;0.70;99.90;;;;;;5054819;28;20470;-79
2022/04/17 02:07:40;;;;;;;8.52;5.38;;;0.80;99.90;;;;;;5056703;28;20028;-79
2022/04/17 02:10:06;;;;;;;9.05;4.97;;;0.90;99.90;;;;;;5056661;28;20052;-79
2022/04/17 02:12:34;;;;;;;9.27;5.85;;;1.00;99.90;;;;;;5055875;28;20025;-79
2022/04/17 02:15:00;;;;;;;10.30;6.22;;;1.00;99.90;;;;;;5055107;28;20040;-79
2022/04/17 02:17:25;;;;;;;15.40;7.55;;;1.10;99.90;;;;;;5055768;28;20029;-79
2022/04/17 02:19:52;;;;;;;25.85;13.18;;;1.10;99.90;;;;;;5056009;28;20029;-79
2022/04/17 02:22:18;;;;;;;13.52;7.78;;;1.20;99.90;;;;;;5055891;28;20067;-79
2022/04/17 02:24:44;;;;;;;11.77;6.55;;;1.10;99.90;;;;;;5055841;28;20052;-79
2022/04/17 02:27:10;;;;;;;9.05;5.30;;;1.10;99.90;;;;;;5055916;28;20028;-79
2022/04/17 02:29:35;;;;;;;9.55;5.70;;;1.00;99.90;;;;;;5054467;28;20025;-79
2022/04/17 02:32:01;;;;;;;10.05;5.35;;;0.90;99.90;;;;;;5055883;28;20017;-79
2022/04/17 02:34:27;;;;;;;8.13;4.85;;;0.80;99.90;;;;;;5055860;28;20029;-79
2022/04/17 02:36:53;;;;;;;9.25;5.13;;;0.80;99.90;;;;;;5055918;28;20380;-79
2022/04/17 02:39:19;;;;;;;8.35;5.05;;;0.70;99.90;;;;;;5056069;28;20081;-79
2022/04/17 02:41:44;;;;;;;8.00;4.38;;;0.80;99.90;;;;;;5055778;28;20096;-79
2022/04/17 02:44:10;;;;;;;8.35;4.80;;;0.80;99.90;;;;;;5055401;28;20489;-79
2022/04/17 02:49:20;;;;;;;8.40;5.43;;;0.80;99.90;;;;;;5055757;28;20035;-79
2022/04/17 02:51:46;;;;;;;8.90;5.65;;;0.80;99.90;;;;;;5055752;28;20029;-79
2022/04/17 02:54:11;;;;;;;8.18;4.80;;;0.90;99.90;;;;;;5055605;28;20049;-79
2022/04/17 02:56:37;;;;;;;8.90;4.80;;;0.90;99.90;;;;;;5053987;28;20021;-79
2022/04/17 02:59:03;;;;;;;8.25;4.90;;;0.90;99.90;;;;;;5053817;28;20032;-79
2022/04/17 03:06:57;;;;;;;10.35;5.65;;;0.90;99.90;;;;;;5055270;28;20102;-79
2022/04/17 03:09:23;;;;;;;11.02;6.05;;;0.90;99.90;;;;;;5054926;28;20067;-79
2022/04/17 03:11:48;;;;;;;9.32;5.90;;;0.80;99.90;;;;;;5054890;28;20047;-79
2022/04/17 03:14:14;;;;;;;9.25;5.35;;;0.70;99.90;;;;;;5054804;28;20025;-79
2022/04/17 03:16:40;;;;;;;8.32;5.55;;;0.60;99.90;;;;;;5055037;28;20048;-79
2022/04/17 03:19:06;;;;;;;7.68;4.78;;;0.50;99.90;;;;;;5053520;28;20469;-79
2022/04/17 03:21:32;;;;;;;8.25;5.03;;;0.50;99.90;;;;;;5054756;28;20100;-79
2022/04/17 03:23:58;;;;;;;7.70;4.57;;;0.50;99.90;;;;;;5054419;28;20096;-79
2022/04/17 03:26:24;;;;;;;8.32;4.43;;;0.50;99.90;;;;;;5054382;28;20108;-79
2022/04/17 03:28:54;;;;;;;9.25;5.00;;;0.50;99.90;;;;;;5053424;28;20025;-79
2022/04/17 03:31:20;;;;;;;7.78;4.50;;;0.40;99.90;;;;;;5054534;28;20032;-79
2022/04/17 03:33:45;;;;;;;9.38;5.10;;;0.30;99.90;;;;;;5053180;28;20428;-79
2022/04/17 03:36:12;;;;;;;8.23;4.43;;;0.20;99.90;;;;;;5055054;28;20021;-79
2022/04/17 03:38:38;;;;;;;8.35;5.03;;;0.10;99.90;;;;;;5054751;28;20028;-79
2022/04/17 03:41:04;;;;;;;8.32;4.93;;;0.00;99.90;;;;;;5054380;28;20025;-79
2022/04/17 03:43:29;;;;;;;12.10;6.80;;;-0.10;99.90;;;;;;5052936;28;20029;-79
2022/04/17 03:45:55;;;;;;;16.27;8.23;;;-0.10;99.90;;;;;;5053042;28;20032;-79
2022/04/17 03:48:20;;;;;;;17.73;8.82;;;-0.20;99.90;;;;;;5054307;28;20032;-79
2022/04/17 03:50:47;;;;;;;16.30;8.30;;;-0.20;99.90;;;;;;5054655;28;20055;-79
2022/04/17 03:53:13;;;;;;;17.42;9.48;;;-0.20;99.90;;;;;;5054149;28;20384;-79
2022/04/17 03:55:39;;;;;;;18.60;10.15;;;-0.20;99.90;;;;;;5054483;28;20014;-79
2022/04/17 03:58:04;;;;;;;18.17;9.27;;;-0.20;99.90;;;;;;5054511;28;20489;-79
2022/04/17 04:00:30;;;;;;;17.13;9.48;;;-0.10;99.90;;;;;;5053160;28;20451;-79
2022/04/17 04:02:56;;;;;;;14.73;8.45;;;-0.10;99.90;;;;;;5053924;28;20021;-79
2022/04/17 04:05:21;;;;;;;12.05;7.07;;;0.00;99.90;;;;;;5052690;28;20032;-79
2022/04/17 04:07:48;;;;;;;9.55;5.75;;;0.10;99.90;;;;;;5054056;28;20017;-79
2022/04/17 04:10:14;;;;;;;7.82;5.00;;;0.10;99.90;;;;;;5054017;28;20052;-79
2022/04/17 04:12:40;;;;;;;9.38;4.93;;;0.20;99.90;;;;;;5053933;28;20017;-79
2022/04/17 04:15:07;;;;;;;8.98;5.13;;;0.20;99.90;;;;;;5053769;28;20032;-79
2022/04/17 04:17:33;;;;;;;8.43;4.70;;;0.20;99.90;;;;;;5053746;28;20071;-79
2022/04/17 04:19:59;;;;;;;7.90;4.53;;;0.20;99.90;;;;;;5054219;28;20437;-79
2022/04/17 04:22:25;;;;;;;8.93;4.85;;;0.20;99.90;;;;;;5053930;28;20104;-79
2022/04/17 04:24:51;;;;;;;8.82;4.65;;;0.20;99.90;;;;;;5053852;28;20116;-79
2022/04/17 04:30:02;;;;;;;7.95;4.88;;;0.10;99.90;;;;;;5054161;28;20094;-79
2022/04/17 04:32:27;;;;;;;8.60;4.55;;;0.10;99.90;;;;;;5053895;28;20048;-79
2022/04/17 04:35:00;;;;;;;8.55;4.70;;;0.10;99.90;;;;;;5053654;28;20024;-79
2022/04/17 04:37:26;;;;;;;10.25;5.72;;;0.10;99.90;;;;;;5054008;28;20025;-79
2022/04/17 04:39:52;;;;;;;10.02;5.55;;;0.20;99.90;;;;;;5053608;28;20087;-79
2022/04/17 04:42:19;;;;;;;9.63;5.78;;;0.20;99.90;;;;;;5053983;28;20040;-79
2022/04/17 04:44:47;;;;;;;9.98;5.70;;;0.20;99.90;;;;;;5053466;28;20497;-79
2022/04/17 04:47:14;;;;;;;12.73;6.28;;;0.20;99.90;;;;;;5053534;28;20044;-79
2022/04/17 04:49:39;;;;;;;10.02;5.93;;;0.20;99.90;;;;;;5054260;28;20029;-79
2022/04/17 04:52:06;;;;;;;11.48;6.70;;;0.20;99.90;;;;;;5053407;28;20473;-79
2022/04/17 04:54:33;;;;;;;13.70;9.75;;;0.20;99.90;;;;;;5053085;28;20021;-79
2022/04/17 04:57:00;;;;;;;15.23;9.75;;;0.20;99.90;;;;;;5053232;28;20370;-80
2022/04/17 04:59:25;;;;;;;13.30;8.75;;;0.10;99.90;;;;;;5052087;28;20028;-80
2022/04/17 05:01:51;;;;;;;12.75;8.05;;;0.20;99.90;;;;;;5053260;28;20033;-80
2022/04/17 05:04:18;;;;;;;11.13;6.65;;;0.10;99.90;;;;;;5051841;28;20071;-79
2022/04/17 05:06:47;;;;;;;9.50;5.88;;;0.10;99.90;;;;;;5053074;28;20109;-79
2022/04/17 05:09:13;;;;;;;9.35;5.72;;;0.10;99.90;;;;;;5051948;28;20029;-79
2022/04/17 05:11:39;;;;;;;9.00;5.90;;;0.10;99.90;;;;;;5051740;28;20044;-79
2022/04/17 05:14:06;;;;;;;8.90;5.38;;;0.10;99.90;;;;;;5053245;28;20104;-79
2022/04/17 05:16:32;;;;;;;10.68;5.65;;;0.00;99.90;;;;;;5053052;28;20366;-79
2022/04/17 05:19:19;;;;;;;7.68;4.90;;;0.10;99.90;;;;;;5051517;28;20032;-79
2022/04/17 05:21:47;;;;;;;10.25;5.63;;;0.10;99.90;;;;;;5053332;28;20100;-79
2022/04/17 05:24:16;;;;;;;9.70;5.82;;;0.10;99.90;;;;;;5051603;28;20029;-79
2022/04/17 05:26:42;;;;;;;9.95;5.63;;;0.10;99.90;;;;;;5052996;28;20017;-79
2022/04/17 05:29:08;;;;;;;8.48;5.13;;;0.10;99.90;;;;;;5051670;28;20029;-79
2022/04/17 05:31:34;;;;;;;11.63;6.25;;;0.20;99.90;;;;;;5052999;28;20104;-79
2022/04/17 05:33:59;;;;;;;11.68;6.90;;;0.10;99.90;;;;;;5052575;28;20029;-79
2022/04/17 05:36:25;;;;;;;10.32;6.50;;;0.10;99.90;;;;;;5053212;28;20075;-79
2022/04/17 05:38:53;;;;;;;10.27;6.68;;;0.10;99.90;;;;;;5052824;28;20017;-79
2022/04/17 05:41:21;;;;;;;10.60;6.45;;;0.10;99.90;;;;;;5053187;28;20025;-79
2022/04/17 05:43:47;;;;;;;10.88;6.50;;;0.20;99.90;;;;;;5052676;28;20141;-79
2022/04/17 05:46:13;;;;;;;10.32;6.22;;;0.20;99.90;;;;;;5053297;28;20021;-79
2022/04/17 05:48:39;;;;;;;10.73;6.50;;;0.20;99.90;;;;;;5053185;28;20039;-79
2022/04/17 05:51:04;;;;;;;13.88;7.20;;;0.30;99.90;;;;;;5056720;28;20024;-79
2022/04/17 05:53:30;;;;;;;15.75;7.75;;;0.40;99.90;;;;;;5056355;28;20028;-79
2022/04/17 05:55:57;;;;;;;12.35;7.13;;;0.50;99.90;;;;;;5056282;28;20018;-79
2022/04/17 05:58:22;;;;;;;11.43;7.45;;;0.50;99.90;;;;;;5055322;28;20036;-79
2022/04/17 06:00:48;;;;;;;13.93;8.02;;;0.60;99.90;;;;;;5056214;28;20126;-79
2022/04/17 06:03:15;;;;;;;13.18;7.88;;;0.60;99.90;;;;;;5055934;28;20477;-79
2022/04/17 06:05:44;;;;;;;18.27;10.35;;;0.70;99.90;;;;;;5056182;28;20029;-79
2022/04/17 06:08:10;;;;;;;15.93;8.98;;;0.70;99.90;;;;;;5056206;28;20096;-79
2022/04/17 06:10:35;;;;;;;20.00;9.23;;;0.70;99.90;;;;;;5056412;28;20059;-79
2022/04/17 06:13:01;;;;;;;13.93;8.50;;;0.70;99.90;;;;;;5056654;28;20040;-79
2022/04/17 06:15:27;;;;;;;16.58;8.93;;;0.70;99.90;;;;;;5055938;28;20058;-79
2022/04/17 06:17:55;;;;;;;17.42;9.55;;;0.80;99.90;;;;;;5055763;28;20094;-79
2022/04/17 06:20:21;;;;;;;15.85;9.18;;;0.90;99.90;;;;;;5054663;28;20031;-79
2022/04/17 06:22:47;;;;;;;17.80;9.65;;;0.90;99.90;;;;;;5055984;28;20100;-79
2022/04/17 06:25:14;;;;;;;16.30;8.10;;;1.00;99.90;;;;;;5055739;28;20116;-77
2022/04/17 06:27:46;;;;;;;16.48;8.07;;;1.10;99.90;;;;;;5055901;28;20047;-77
2022/04/17 06:30:19;;;;;;;15.80;9.25;;;1.10;99.90;;;;;;5057401;28;20424;-77
2022/04/17 06:32:46;;;;;;;16.02;9.23;;;1.10;99.90;;;;;;5036835;28;20481;-77
2022/04/17 06:35:13;;;;;;;14.63;7.72;;;1.20;99.90;;;;;;5034966;28;20060;-77
2022/04/17 06:37:48;;;;;;;15.20;7.78;;;1.20;99.90;;;;;;5036669;28;20033;-77
2022/04/17 06:40:19;;;;;;;15.07;7.90;;;1.30;99.90;;;;;;5037037;28;20030;-77
2022/04/17 06:42:46;;;;;;;12.23;6.70;;;1.40;99.90;;;;;;5051087;28;20108;-77
2022/04/17 06:45:13;;;;;;;14.70;7.50;;;1.50;99.90;;;;;;5042326;28;20474;-77
2022/04/17 06:47:40;;;;;;;12.43;7.03;;;1.60;99.90;;;;;;5037299;28;20386;-78
2022/04/17 06:50:06;;;;;;;11.13;6.18;;;1.70;99.90;;;;;;5038126;28;20026;-78
2022/04/17 06:52:32;;;;;;;10.05;6.20;;;1.80;99.90;;;;;;5037766;28;20132;-79
2022/04/17 06:54:58;;;;;;;11.85;6.22;;;1.90;99.90;;;;;;5037814;28;20021;-79
2022/04/17 06:57:36;;;;;;;10.32;5.68;;;2.10;99.90;;;;;;5038244;28;20040;-79
2022/04/17 07:00:10;;;;;;;9.30;5.80;;;2.20;99.90;;;;;;5036733;28;20072;-79
2022/04/17 07:02:40;;;;;;;9.70;5.20;;;2.40;99.90;;;;;;5037914;28;20022;-79
2022/04/17 07:05:06;;;;;;;8.40;5.07;;;2.50;99.90;;;;;;5037741;28;20029;-78
2022/04/17 07:07:33;;;;;;;11.85;5.55;;;2.60;99.90;;;;;;5037929;28;20100;-79
2022/04/17 07:09:59;;;;;;;8.07;5.05;;;2.70;99.90;;;;;;5038446;28;20034;-79
2022/04/17 07:12:24;;;;;;;5.80;4.03;;;2.80;99.90;;;;;;5036857;28;20029;-79
2022/04/17 07:14:50;;;;;;;8.85;4.55;;;3.00;99.90;;;;;;5046621;28;20057;-79
2022/04/17 07:17:16;;;;;;;8.93;4.50;;;3.20;99.90;;;;;;5037665;28;20029;-79
2022/04/17 07:19:42;;;;;;;7.75;5.45;;;3.30;99.90;;;;;;5053963;28;20389;-79
2022/04/17 07:22:08;;;;;;;9.27;5.40;;;3.40;99.90;;;;;;5055980;28;20025;-79
2022/04/17 07:24:33;;;;;;;7.93;4.80;;;3.50;99.90;;;;;;5053804;28;20028;-78
2022/04/17 07:27:00;;;;;;;7.53;4.78;;;3.70;99.90;;;;;;5054453;28;20028;-78
2022/04/17 07:29:27;;;;;;;7.07;4.28;;;3.80;99.90;;;;;;5055389;28;20024;-79
2022/04/17 07:31:53;;;;;;;6.38;3.92;;;4.00;99.90;;;;;;5055490;28;20082;-79
2022/04/17 07:34:22;;;;;;;7.75;4.22;;;4.10;99.90;;;;;;5054795;28;20444;-79
2022/04/17 07:36:52;;;;;;;6.43;3.88;;;4.30;99.90;;;;;;5054726;28;20021;-79
2022/04/17 07:39:18;;;;;;;5.88;3.60;;;4.40;99.90;;;;;;5055039;28;20035;-78
2022/04/17 07:41:47;;;;;;;6.80;4.28;;;4.60;99.90;;;;;;5055526;28;20469;-79
2022/04/17 07:44:13;;;;;;;6.72;4.28;;;4.80;99.90;;;;;;5054879;28;20112;-78
2022/04/17 07:46:40;;;;;;;5.90;3.63;;;4.90;99.90;;;;;;5055210;28;20024;-79
2022/04/17 07:49:06;;;;;;;6.60;4.18;;;5.10;99.90;;;;;;5053350;28;20032;-79
2022/04/17 07:51:32;;;;;;;9.20;4.85;;;5.20;99.80;;;;;;5054770;28;20059;-78
2022/04/17 07:53:57;;;;;;;9.65;6.50;;;5.40;99.10;;;;;;5054793;28;20438;-79
2022/04/17 07:56:23;;;;;;;12.77;8.30;;;5.50;97.60;;;;;;5053374;28;20067;-79
2022/04/17 07:58:48;;;;;;;16.10;9.32;;;5.60;96.90;;;;;;5054443;28;20059;-79
2022/04/17 08:01:16;;;;;;;8.25;4.13;;;5.80;95.70;;;;;;5054103;28;20086;-80
2022/04/17 08:06:10;;;;;;;6.85;5.30;;;6.00;94.00;;;;;;5054271;28;20021;-79
2022/04/17 08:08:37;;;;;;;8.63;5.88;;;6.10;94.00;;;;;;5052993;28;20167;-79
2022/04/17 08:11:04;;;;;;;9.98;7.40;;;6.30;94.90;;;;;;5054954;28;20032;-79
2022/04/17 08:13:30;;;;;;;8.68;4.57;;;6.40;93.30;;;;;;5054682;28;20029;-78
2022/04/17 08:15:56;;;;;;;21.50;11.55;;;6.50;92.00;;;;;;5054505;28;20090;-79
2022/04/17 08:18:21;;;;;;;8.32;3.90;;;6.70;91.20;;;;;;5054617;28;20021;-78
2022/04/17 08:20:47;;;;;;;8.10;4.65;;;6.80;92.00;;;;;;5053949;28;20025;-79
2022/04/17 08:23:13;;;;;;;6.68;3.67;;;6.90;89.40;;;;;;5054561;28;20100;-79
2022/04/17 08:25:39;;;;;;;6.20;3.78;;;6.90;90.30;;;;;;5053789;28;20021;-79
2022/04/17 08:28:05;;;;;;;6.05;3.63;;;7.10;87.60;;;;;;5054235;28;20039;-80
2022/04/17 08:30:32;;;;;;;7.32;3.80;;;7.10;86.90;;;;;;5053588;28;20075;-79
2022/04/17 08:33:03;;;;;;;5.75;3.60;;;7.20;86.80;;;;;;5053698;28;20096;-79
2022/04/17 08:35:29;;;;;;;6.30;3.83;;;7.30;83.70;;;;;;5053787;28;20028;-80
2022/04/17 08:37:57;;;;;;;6.60;3.85;;;7.30;85.20;;;;;;5053795;28;20017;-79
2022/04/17 08:40:24;;;;;;;5.35;3.38;;;7.50;85.90;;;;;;5052190;28;20029;-80
2022/04/17 08:42:50;;;;;;;4.65;3.10;;;7.60;85.30;;;;;;5054168;28;20496;-79
2022/04/17 08:45:16;;;;;;;5.90;3.53;;;7.80;87.20;;;;;;5052146;28;20025;-79
2022/04/17 08:47:43;;;;;;;6.88;3.75;;;7.90;84.70;;;;;;5053416;28;20051;-78
2022/04/17 08:50:10;;;;;;;5.82;2.95;;;7.90;80.40;;;;;;5052512;28;20160;-79
2022/04/17 08:52:38;;;;;;;4.47;2.58;;;8.00;78.10;;;;;;5053982;28;20466;-79
2022/04/17 08:55:04;;;;;;;5.05;3.00;;;7.90;76.80;;;;;;5052274;28;20036;-79
2022/04/17 08:57:30;;;;;;;5.28;3.30;;;8.00;77.40;;;;;;5053620;28;20021;-79
2022/04/17 08:59:56;;;;;;;4.53;3.03;;;8.10;78.50;;;;;;5053652;28;20024;-79
2022/04/17 09:02:22;;;;;;;4.63;2.80;;;8.20;77.00;;;;;;5053826;28;20081;-79
2022/04/17 09:04:48;;;;;;;3.50;2.20;;;8.40;72.50;;;;;;5054164;28;20031;-79
2022/04/17 09:07:14;;;;;;;5.88;2.45;;;8.40;72.80;;;;;;5053578;28;20021;-79
2022/04/17 09:09:47;;;;;;;3.75;2.47;;;8.40;71.70;;;;;;5051995;28;20542;-79
2022/04/17 09:12:18;;;;;;;5.60;2.38;;;8.40;70.60;;;;;;5053526;28;20040;-79
2022/04/17 09:14:44;;;;;;;6.05;2.60;;;8.50;71.10;;;;;;5053344;28;20049;-79
2022/04/17 09:17:10;;;;;;;3.65;2.20;;;8.50;70.50;;;;;;5053212;28;20059;-79
2022/04/17 09:19:37;;;;;;;4.25;2.00;;;8.60;73.20;;;;;;5053250;28;20013;-79
2022/04/17 09:22:05;;;;;;;7.45;2.47;;;8.70;70.10;;;;;;5053213;28;20021;-79
2022/04/17 09:24:35;;;;;;;4.80;2.70;;;8.80;70.80;;;;;;5056628;28;20028;-79
2022/04/17 09:27:01;;;;;;;4.38;2.30;;;8.80;69.30;;;;;;5055970;28;20025;-79
2022/04/17 09:29:29;;;;;;;4.53;1.80;;;8.80;68.10;;;;;;5057387;28;20058;-79
2022/04/17 09:32:05;;;;;;;4.05;1.90;;;8.70;67.30;;;;;;5057069;28;20056;-79
2022/04/17 09:34:47;;;;;;;4.93;2.20;;;8.80;67.60;;;;;;5057223;28;20016;-79
2022/04/17 09:37:14;;;;;;;;;;;9.00;70.60;;;;;;5057525;28;20013;-79
2022/04/17 09:39:40;;;;;;;3.30;2.10;;;9.10;67.70;;;;;;5057372;28;19917;-79
2022/04/17 09:42:07;;;;;;;3.45;1.80;;;9.20;67.80;;;;;;5055461;28;20032;-79
2022/04/17 09:44:57;;;;;;;3.83;2.08;;;9.30;65.70;;;;;;5057196;28;20017;-79
2022/04/17 09:47:27;;;;;;;3.00;1.70;;;9.40;67.70;;;;;;5056994;28;20032;-79
2022/04/17 09:50:03;;;;;;;4.10;1.77;;;9.50;68.80;;;;;;5055226;28;20029;-79
2022/04/17 09:52:31;;;;;;;2.40;1.52;;;9.70;67.80;;;;;;5056988;28;20032;-79
2022/04/17 09:54:58;;;;;;;5.38;1.83;;;9.70;64.50;;;;;;5056418;28;20060;-79
2022/04/17 09:57:31;;;;;;;3.45;1.40;;;9.80;66.10;;;;;;5056986;28;20021;-79
2022/04/17 10:00:06;;;;;;;2.67;1.50;;;9.80;62.90;;;;;;5055339;28;20075;-79
2022/04/17 10:02:32;;;;;;;5.55;1.80;;;9.80;60.30;;;;;;5056865;28;20017;-79
2022/04/17 10:04:59;;;;;;;4.72;1.90;;;9.80;63.30;;;;;;5056138;28;20033;-79
2022/04/17 10:07:27;;;;;;;2.83;1.42;;;9.70;65.00;;;;;;5056580;28;20029;-79
2022/04/17 10:09:53;;;;;;;2.65;1.38;;;9.80;66.60;;;;;;5056748;28;20021;-79
2022/04/17 10:12:20;;;;;;;5.78;1.73;;;10.00;66.30;;;;;;5056459;28;20079;-79
2022/04/17 10:14:49;;;;;;;3.35;1.55;;;10.10;62.90;;;;;;5056289;28;20029;-79
2022/04/17 10:17:20;;;;;;;4.53;1.75;;;10.10;59.70;;;;;;5056271;28;20104;-79
2022/04/17 10:19:47;;;;;;;3.40;1.60;;;10.10;61.80;;;;;;5056047;28;20029;-79
2022/04/17 10:22:18;;;;;;;3.40;1.60;;;10.10;61.30;;;;;;5055990;28;20108;-79
2022/04/17 10:24:51;;;;;;;4.70;1.80;;;10.20;61.30;;;;;;5054857;28;20021;-80
2022/04/17 10:27:23;;;;;;;2.65;1.60;;;10.10;61.90;;;;;;5056624;28;20547;-79
2022/04/17 10:30:03;;;;;;;4.20;1.55;;;10.20;60.80;;;;;;5056424;28;20033;-79
2022/04/17 10:32:29;;;;;;;2.28;1.45;;;10.40;61.00;;;;;;5056535;28;20433;-79
2022/04/17 10:35:15;;;;;;;3.40;1.50;;;10.50;62.80;;;;;;5054825;28;20396;-79
2022/04/17 10:38:15;;;;;;;5.20;1.98;;;10.60;60.80;;;;;;5056493;28;20025;-80
2022/04/17 10:40:51;;;;;;;2.53;1.40;;;10.50;59.80;;;;;;5055500;28;20029;-80
2022/04/17 10:43:17;;;;;;;4.10;1.85;;;10.50;59.50;;;;;;5056409;28;20021;-79
2022/04/17 10:46:09;;;;;;;2.88;1.52;;;10.60;59.10;;;;;;5055831;28;20059;-79
2022/04/17 10:48:48;;;;;;;2.90;1.30;;;10.60;58.60;;;;;;5055518;28;20013;-79
2022/04/17 10:51:16;;;;;;;3.40;1.50;;;10.70;59.20;;;;;;5055721;28;20017;-79
2022/04/17 10:53:57;;;;;;;2.55;1.45;;;10.90;59.80;;;;;;5056006;28;20082;-80
2022/04/17 10:56:22;;;;;;;2.42;1.38;;;11.00;61.30;;;;;;5055640;28;20489;-80
2022/04/17 10:58:56;;;;;;;3.33;1.13;;;11.10;60.10;;;;;;5056041;28;20039;-80
2022/04/17 11:01:43;;;;;;;3.28;1.52;;;11.20;59.40;;;;;;5054250;28;20549;-80
2022/04/17 11:04:19;;;;;;;3.45;1.67;;;11.20;60.30;;;;;;5053790;28;20062;-79
2022/04/17 11:06:45;;;;;;;2.75;1.42;;;11.30;57.30;;;;;;5054122;28;20033;-79
2022/04/17 11:09:23;;;;;;;3.25;1.50;;;11.40;57.10;;;;;;5055218;28;20028;-79
2022/04/17 11:11:49;;;;;;;2.53;1.40;;;11.50;60.30;;;;;;5055457;28;20481;-79
2022/04/17 11:14:16;;;;;;;2.10;1.30;;;11.50;59.30;;;;;;5054918;28;20063;-79
2022/04/17 11:16:58;;;;;;;2.72;1.30;;;11.60;59.00;;;;;;5055051;28;20044;-79
2022/04/17 11:19:31;;;;;;;3.20;1.30;;;11.70;58.80;;;;;;5054690;28;20021;-79
2022/04/17 11:22:07;;;;;;;3.10;1.35;;;11.70;57.10;;;;;;5054603;28;20021;-80
2022/04/17 11:24:54;;;;;;;2.95;1.40;;;11.70;56.90;;;;;;5054835;28;20028;-79
2022/04/17 11:27:31;;;;;;;2.67;1.23;;;11.70;56.70;;;;;;5054871;28;20023;-79
2022/04/17 11:29:58;;;;;;;3.97;1.42;;;11.80;57.10;;;;;;5054759;28;20071;-79
2022/04/17 11:32:27;;;;;;;4.13;1.33;;;12.00;55.80;;;;;;5053262;28;20458;-79
2022/04/17 11:34:54;;;;;;;2.13;1.27;;;12.10;57.50;;;;;;5054245;28;20025;-79
2022/04/17 11:37:28;;;;;;;2.40;1.20;;;12.10;59.30;;;;;;5054393;28;20036;-79
2022/04/17 11:39:55;;;;;;;2.90;1.30;;;12.20;55.80;;;;;;5054661;28;20059;-79
2022/04/17 11:42:22;;;;;;;2.17;1.33;;;12.20;57.10;;;;;;5053195;28;20021;-79
2022/04/17 11:44:49;;;;;;;1.92;1.35;;;12.20;55.80;;;;;;5054542;28;20453;-79
2022/04/17 11:47:20;;;;;;;2.42;1.30;;;12.30;55.60;;;;;;5054151;28;20025;-79
2022/04/17 11:49:48;;;;;;;2.55;0.95;;;12.30;56.20;;;;;;5054194;28;20158;-79
2022/04/17 11:52:21;;;;;;;2.25;1.10;;;12.30;55.70;;;;;;5059132;28;20398;-79
2022/04/17 11:54:48;;;;;;;3.22;1.45;;;12.40;55.80;;;;;;5052964;28;20027;-79
2022/04/17 11:57:18;;;;;;;3.00;1.23;;;12.50;53.50;;;;;;5054304;28;20026;-79
2022/04/17 11:59:48;;;;;;;2.40;1.47;;;12.60;53.20;;;;;;5053031;28;20389;-79
2022/04/17 12:02:16;;;;;;;2.58;1.10;;;12.50;55.10;;;;;;5054341;28;20013;-79
2022/04/17 12:04:43;;;;;;;3.80;1.48;;;12.50;52.60;;;;;;5053966;28;20104;-79
2022/04/17 12:07:13;;;;;;;2.05;1.20;;;12.30;53.20;;;;;;5053006;28;20485;-79
2022/04/17 12:09:39;;;;;;;2.00;0.98;;;12.30;54.90;;;;;;5054303;28;20561;-79
2022/04/17 12:12:16;;;;;;;2.45;1.50;;;12.40;57.60;;;;;;5054117;28;20025;-79
2022/04/17 12:14:42;;;;;;;2.88;1.42;;;12.70;55.60;;;;;;5052570;28;20060;-79
2022/04/17 12:17:08;;;;;;;3.15;1.55;;;12.80;53.20;;;;;;5053949;28;20021;-79
2022/04/17 12:19:34;;;;;;;2.80;1.20;;;12.90;55.60;;;;;;5053749;28;20017;-79
2022/04/17 12:22:11;;;;;;;3.17;1.48;;;13.00;52.40;;;;;;5054518;28;20465;-79
2022/04/17 12:24:37;;;;;;;2.13;1.20;;;13.00;53.90;;;;;;5053872;28;20055;-79
2022/04/17 12:27:04;;;;;;;2.75;1.30;;;12.90;51.60;;;;;;5054214;28;20504;-79
2022/04/17 12:29:30;;;;;;;3.13;1.30;;;12.90;53.90;;;;;;5054018;28;20096;-79
2022/04/17 12:31:56;;;;;;;2.90;1.60;;;12.90;52.80;;;;;;5052470;28;20071;-79
2022/04/17 12:34:23;;;;;;;2.80;1.25;;;12.90;52.60;;;;;;5054060;28;20029;-79
2022/04/17 12:36:49;;;;;;;2.15;1.20;;;12.70;51.00;;;;;;5055241;28;20029;-79
2022/04/17 12:39:29;;;;;;;2.30;1.40;;;12.70;53.00;;;;;;5052552;28;20025;-80
2022/04/17 12:41:56;;;;;;;2.55;1.48;;;12.80;55.10;;;;;;5053834;28;20025;-79
2022/04/17 12:44:33;;;;;;;3.03;1.40;;;12.80;50.30;;;;;;5053859;28;20017;-79
2022/04/17 12:47:25;;;;;;;2.42;1.30;;;12.70;50.00;;;;;;5053830;28;20159;-79
2022/04/17 12:49:57;;;;;;;2.80;1.42;;;12.70;51.10;;;;;;5051834;28;20493;-79
2022/04/17 12:52:24;;;;;;;2.95;1.52;;;12.60;48.90;;;;;;5053839;28;20422;-79
2022/04/17 12:54:49;;;;;;;4.00;1.70;;;12.50;51.70;;;;;;5053247;28;20029;-79
2022/04/17 12:57:20;;;;;;;5.13;1.42;;;12.60;49.90;;;;;;5053460;28;20040;-79
2022/04/17 12:59:52;;;;;;;2.58;1.27;;;12.70;52.40;;;;;;5057958;28;20017;-79
2022/04/17 13:02:19;;;;;;;3.80;1.35;;;12.80;53.00;;;;;;5057888;28;20033;-79
2022/04/17 13:04:46;;;;;;;2.08;1.33;;;12.90;50.70;;;;;;5057269;28;20021;-79
2022/04/17 13:07:14;;;;;;;2.97;1.30;;;13.00;49.60;;;;;;5057820;28;20056;-80
2022/04/17 13:09:57;;;;;;;2.10;1.40;;;13.10;53.30;;;;;;5057740;28;20029;-79
2022/04/17 13:12:50;;;;;;;3.58;1.33;;;13.30;50.00;;;;;;5057849;28;20108;-79
2022/04/17 13:15:17;;;;;;;3.50;1.60;;;13.30;51.10;;;;;;5053403;28;20036;-79
2022/04/17 13:17:49;;;;;;;3.78;1.42;;;13.20;49.30;;;;;;5057272;28;20466;-79